Time;durP1;ratioP1;P1;durP2;ratioP2;P2;SDS_P1;SDS_P2;PMS_P1;PMS_P2;Temp;Humidity;BMP_temperature;BMP_pressure;BME280_temperature;BME280_humidity;BME280_pressure;Samples;Min_cycle;Max_cycle;Signal;HPM_P1;HPM_P2
2022/05/18 00:02:23;;;;;;;3.97;3.67;;;21.60;89.20;;;;;;5047897;28;20450;-69
2022/05/18 00:04:49;;;;;;;5.83;4.00;;;21.60;89.00;;;;;;5046064;28;20990;-69
2022/05/18 00:07:15;;;;;;;5.80;4.13;;;21.60;88.90;;;;;;5047281;28;20222;-69
2022/05/18 00:09:41;;;;;;;4.30;3.90;;;21.60;89.00;;;;;;5037483;28;20228;-68
2022/05/18 00:12:07;;;;;;;4.00;3.70;;;21.60;89.10;;;;;;5042266;28;20520;-69
2022/05/18 00:14:34;;;;;;;6.93;3.53;;;21.50;89.30;;;;;;5034707;28;20243;-69
2022/05/18 00:17:03;;;;;;;8.17;4.43;;;21.40;90.00;;;;;;5046806;28;20537;-68
2022/05/18 00:19:29;;;;;;;4.77;4.37;;;21.30;90.10;;;;;;5051868;28;20477;-69
2022/05/18 00:21:55;;;;;;;10.40;4.00;;;21.20;90.10;;;;;;5051627;28;20597;-68
2022/05/18 00:24:21;;;;;;;4.80;4.40;;;21.30;90.10;;;;;;5052650;28;20533;-69
2022/05/18 00:26:47;;;;;;;4.70;4.30;;;21.30;90.10;;;;;;5046351;28;20215;-69
2022/05/18 00:29:13;;;;;;;5.50;4.10;;;21.30;90.10;;;;;;5050519;28;20230;-70
2022/05/18 00:31:40;;;;;;;4.67;4.27;;;21.30;90.10;;;;;;5051948;28;20238;-69
2022/05/18 00:34:06;;;;;;;3.97;3.70;;;21.30;90.10;;;;;;5052288;28;20311;-68
2022/05/18 00:36:32;;;;;;;5.03;4.47;;;21.20;90.10;;;;;;5053169;28;20510;-68
2022/05/18 00:38:57;;;;;;;4.53;4.13;;;21.20;90.10;;;;;;5044275;28;20216;-69
2022/05/18 00:41:23;;;;;;;4.10;3.70;;;21.20;90.20;;;;;;5031858;28;20299;-69
2022/05/18 00:43:51;;;;;;;4.43;4.03;;;21.20;90.20;;;;;;5043037;28;20228;-70
2022/05/18 00:46:17;;;;;;;5.00;4.60;;;21.10;90.20;;;;;;5052445;28;20227;-68
2022/05/18 00:48:43;;;;;;;5.87;3.90;;;21.10;90.20;;;;;;5050353;28;20446;-69
2022/05/18 00:51:29;;;;;;;4.93;4.43;;;21.10;90.30;;;;;;5050693;28;20477;-71
2022/05/18 00:54:16;;;;;;;6.30;4.30;;;21.00;90.30;;;;;;5041065;28;20537;-70
2022/05/18 00:56:52;;;;;;;5.37;4.87;;;21.00;90.30;;;;;;5051189;28;20825;-68
2022/05/18 00:59:23;;;;;;;4.60;4.20;;;21.00;90.30;;;;;;5050175;28;20531;-69
2022/05/18 01:01:52;;;;;;;3.93;3.63;;;20.90;90.30;;;;;;5051005;28;20531;-68
2022/05/18 01:04:18;;;;;;;4.57;4.17;;;20.90;90.30;;;;;;5034000;28;20985;-69
2022/05/18 01:06:54;;;;;;;4.67;4.27;;;20.90;90.50;;;;;;5051195;28;20446;-69
2022/05/18 01:09:28;;;;;;;4.53;4.10;;;20.70;90.70;;;;;;5048122;28;20454;-69
2022/05/18 01:11:54;;;;;;;5.70;4.70;;;20.80;90.60;;;;;;5044804;28;20475;-69
2022/05/18 01:14:26;;;;;;;5.00;4.57;;;20.70;90.70;;;;;;5030851;28;20455;-68
2022/05/18 01:16:53;;;;;;;4.87;4.37;;;20.80;90.60;;;;;;5044724;28;20458;-69
2022/05/18 01:19:26;;;;;;;6.50;4.60;;;20.70;90.70;;;;;;5045643;28;21021;-68
2022/05/18 01:22:14;;;;;;;8.40;4.73;;;20.70;90.60;;;;;;5031994;28;20521;-70
2022/05/18 01:24:49;;;;;;;6.30;4.60;;;20.70;90.70;;;;;;5017975;28;20807;-69
2022/05/18 01:27:14;;;;;;;5.73;4.70;;;20.70;90.70;;;;;;5049521;28;20454;-69
2022/05/18 01:29:40;;;;;;;7.07;4.77;;;20.70;90.80;;;;;;5050143;28;20450;-71
2022/05/18 01:32:11;;;;;;;5.17;4.67;;;20.60;90.70;;;;;;5049916;28;20318;-68
2022/05/18 01:34:41;;;;;;;7.80;4.37;;;20.60;90.70;;;;;;5049954;28;20215;-68
2022/05/18 01:37:09;;;;;;;5.37;4.40;;;20.60;90.80;;;;;;5048493;28;20890;-69
2022/05/18 01:39:45;;;;;;;5.10;4.43;;;20.50;90.90;;;;;;5030139;28;21174;-68
2022/05/18 01:42:32;;;;;;;7.10;4.70;;;20.50;90.80;;;;;;5045909;28;20533;-68
2022/05/18 01:44:58;;;;;;;4.20;3.80;;;20.50;90.90;;;;;;5044086;28;20546;-70
2022/05/18 01:47:24;;;;;;;5.20;4.70;;;20.50;91.00;;;;;;5045806;28;20453;-70
2022/05/18 01:49:52;;;;;;;4.80;4.33;;;20.50;91.00;;;;;;5042705;28;20220;-69
2022/05/18 01:52:18;;;;;;;5.93;4.67;;;20.40;91.00;;;;;;5030320;28;20304;-67
2022/05/18 01:54:47;;;;;;;5.50;4.33;;;20.40;91.10;;;;;;5043134;28;20533;-67
2022/05/18 01:57:13;;;;;;;5.40;4.20;;;20.40;91.30;;;;;;5049146;28;20688;-68
2022/05/18 01:59:39;;;;;;;4.80;4.40;;;20.30;91.20;;;;;;5049040;28;20553;-70
2022/05/18 02:02:12;;;;;;;5.20;4.70;;;20.30;91.20;;;;;;5032738;28;20455;-71
2022/05/18 02:04:39;;;;;;;5.50;4.83;;;20.30;91.20;;;;;;5043637;28;20797;-69
2022/05/18 02:07:06;;;;;;;4.90;4.47;;;20.30;91.20;;;;;;5016733;28;20498;-67
2022/05/18 02:09:31;;;;;;;5.37;4.87;;;20.30;91.20;;;;;;5038255;28;20515;-68
2022/05/18 02:11:57;;;;;;;5.90;4.80;;;20.20;91.20;;;;;;5046814;28;20462;-70
2022/05/18 02:14:24;;;;;;;5.93;5.43;;;20.20;91.20;;;;;;5049419;28;20590;-70
2022/05/18 02:16:50;;;;;;;5.40;4.90;;;20.10;91.50;;;;;;5046004;28;20235;-69
2022/05/18 02:19:16;;;;;;;7.27;5.00;;;20.00;91.50;;;;;;5041270;28;20496;-67
2022/05/18 02:21:43;;;;;;;6.47;5.20;;;20.00;92.00;;;;;;5049454;28;20235;-66
2022/05/18 02:24:09;;;;;;;5.37;4.87;;;19.90;91.60;;;;;;5040893;28;20536;-69
2022/05/18 02:26:35;;;;;;;6.20;4.53;;;19.90;91.70;;;;;;5043430;28;20451;-67
2022/05/18 02:29:02;;;;;;;6.17;4.77;;;19.80;91.90;;;;;;5028639;28;20465;-68
2022/05/18 02:31:28;;;;;;;7.93;6.00;;;19.80;91.70;;;;;;5029589;28;20907;-67
2022/05/18 02:33:53;;;;;;;6.93;5.27;;;19.90;91.70;;;;;;5028778;28;20451;-67
2022/05/18 02:36:19;;;;;;;5.23;4.67;;;19.80;91.80;;;;;;5031501;28;20212;-69
2022/05/18 02:38:45;;;;;;;5.07;4.63;;;19.80;91.80;;;;;;5047270;28;20223;-68
2022/05/18 02:41:11;;;;;;;5.70;5.20;;;19.80;91.70;;;;;;5048878;28;20242;-68
2022/05/18 02:43:38;;;;;;;6.23;4.87;;;19.80;91.70;;;;;;5051970;28;20218;-68
2022/05/18 02:46:16;;;;;;;5.23;4.73;;;19.80;91.70;;;;;;5048611;28;20454;-67
2022/05/18 02:48:42;;;;;;;5.10;4.67;;;19.80;91.80;;;;;;5049388;28;20457;-67
2022/05/18 02:51:09;;;;;;;6.33;5.73;;;19.70;91.70;;;;;;5033223;28;20458;-67
2022/05/18 02:53:35;;;;;;;6.50;5.23;;;19.80;91.80;;;;;;5046796;28;20455;-67
2022/05/18 02:56:07;;;;;;;5.33;4.83;;;19.70;91.90;;;;;;5061800;28;20462;-69
2022/05/18 02:58:38;;;;;;;4.87;4.47;;;19.70;91.70;;;;;;5047874;28;20465;-68
2022/05/18 03:01:09;;;;;;;6.20;5.53;;;19.60;91.80;;;;;;5048438;28;20480;-69
2022/05/18 03:03:36;;;;;;;5.23;4.70;;;19.60;91.80;;;;;;5048330;28;20459;-67
2022/05/18 03:06:03;;;;;;;5.13;4.63;;;19.60;91.80;;;;;;5049213;28;21013;-68
2022/05/18 03:08:30;;;;;;;9.07;4.53;;;19.60;91.80;;;;;;5049678;28;20469;-68
2022/05/18 03:10:56;;;;;;;8.33;4.80;;;19.60;91.80;;;;;;5022898;28;20511;-70
2022/05/18 03:13:22;;;;;;;5.80;5.13;;;19.50;91.60;;;;;;5043915;28;20549;-67
2022/05/18 03:15:48;;;;;;;9.47;5.10;;;19.60;91.70;;;;;;5037492;28;20583;-69
2022/05/18 03:18:14;;;;;;;4.43;4.03;;;19.50;91.60;;;;;;5045608;28;20273;-68
2022/05/18 03:23:35;;;;;;;6.10;5.27;;;19.40;91.80;;;;;;5049144;28;20465;-68
2022/05/18 03:26:13;;;;;;;7.17;5.40;;;19.40;92.00;;;;;;5060049;28;20469;-68
2022/05/18 03:28:42;;;;;;;5.40;4.83;;;19.30;92.20;;;;;;5028078;28;20451;-68
2022/05/18 03:31:09;;;;;;;6.40;5.30;;;19.30;92.10;;;;;;5029456;28;20478;-67
2022/05/18 03:33:35;;;;;;;5.93;5.20;;;19.30;92.20;;;;;;5042932;28;20822;-68
2022/05/18 03:36:01;;;;;;;5.00;4.60;;;19.20;92.20;;;;;;5022384;28;20538;-68
2022/05/18 03:38:27;;;;;;;6.10;5.27;;;19.30;92.20;;;;;;5053019;28;20509;-67
2022/05/18 03:40:53;;;;;;;6.00;5.40;;;19.20;92.50;;;;;;5064476;28;20224;-68
2022/05/18 03:43:20;;;;;;;5.87;4.57;;;19.20;92.10;;;;;;5048552;28;20455;-68
2022/05/18 03:45:46;;;;;;;6.83;5.73;;;19.20;92.20;;;;;;5049059;28;20974;-68
2022/05/18 03:48:14;;;;;;;6.60;6.00;;;19.10;92.20;;;;;;5046653;28;20446;-67
2022/05/18 03:50:43;;;;;;;5.57;4.80;;;19.10;92.10;;;;;;5046764;28;20503;-68
2022/05/18 03:53:09;;;;;;;6.40;5.80;;;19.10;92.20;;;;;;5048727;28;20445;-68
2022/05/18 03:55:38;;;;;;;7.07;5.67;;;19.10;92.20;;;;;;5051081;28;20454;-67
2022/05/18 03:58:04;;;;;;;6.13;5.53;;;19.10;92.20;;;;;;5050704;28;20466;-69
2022/05/18 04:00:32;;;;;;;7.43;5.13;;;19.10;92.20;;;;;;5052346;28;20912;-69
2022/05/18 04:02:58;;;;;;;5.63;5.13;;;19.10;92.20;;;;;;5053162;28;20949;-70
2022/05/18 04:05:24;;;;;;;5.47;4.70;;;19.10;92.20;;;;;;5052926;28;20462;-68
2022/05/18 04:07:50;;;;;;;5.63;5.00;;;19.00;92.40;;;;;;5050939;28;20886;-67
2022/05/18 04:10:17;;;;;;;6.17;5.00;;;18.80;92.70;;;;;;5032277;28;20216;-68
2022/05/18 04:12:44;;;;;;;6.67;5.97;;;18.90;92.60;;;;;;5047361;28;20466;-66
2022/05/18 04:15:11;;;;;;;7.37;5.03;;;18.90;92.60;;;;;;5038108;28;20779;-67
2022/05/18 04:17:37;;;;;;;5.50;4.97;;;18.90;92.50;;;;;;5050628;28;20579;-68
2022/05/18 04:20:04;;;;;;;5.00;4.50;;;18.90;92.90;;;;;;5051567;28;21033;-67
2022/05/18 04:22:30;;;;;;;6.77;5.50;;;18.90;92.70;;;;;;5053365;28;20220;-67
2022/05/18 04:25:01;;;;;;;11.57;5.77;;;18.90;92.70;;;;;;5040459;28;20831;-67
2022/05/18 04:27:28;;;;;;;5.23;4.73;;;18.90;92.80;;;;;;5051706;28;20507;-68
2022/05/18 04:29:53;;;;;;;7.00;5.10;;;18.90;92.80;;;;;;5038454;28;20453;-67
2022/05/18 04:32:20;;;;;;;5.67;5.10;;;18.90;93.00;;;;;;5052342;28;20837;-68
2022/05/18 04:34:48;;;;;;;5.60;4.90;;;18.80;93.60;;;;;;5071202;28;20216;-68
2022/05/18 04:37:15;;;;;;;7.70;5.07;;;18.80;93.60;;;;;;5048932;28;20934;-67
2022/05/18 04:39:41;;;;;;;5.50;4.80;;;18.80;94.10;;;;;;5031708;28;20471;-68
2022/05/18 04:42:07;;;;;;;5.30;4.80;;;18.80;93.80;;;;;;5032357;28;20910;-68
2022/05/18 04:44:32;;;;;;;5.43;4.80;;;18.80;93.60;;;;;;5050520;28;20458;-68
2022/05/18 04:46:58;;;;;;;4.90;4.40;;;18.80;93.40;;;;;;5051464;28;20461;-67
2022/05/18 04:49:26;;;;;;;5.90;5.40;;;18.90;93.40;;;;;;5051638;28;20227;-68
2022/05/18 04:51:52;;;;;;;7.67;5.60;;;18.90;93.80;;;;;;5044475;28;20219;-69
2022/05/18 04:54:17;;;;;;;6.93;5.07;;;18.90;93.90;;;;;;5040244;28;20453;-71
2022/05/18 04:56:43;;;;;;;5.40;4.90;;;18.90;93.70;;;;;;5030256;28;20219;-65
2022/05/18 04:59:09;;;;;;;5.93;5.27;;;19.00;94.00;;;;;;5038497;28;20228;-65
2022/05/18 05:01:35;;;;;;;6.37;5.77;;;19.00;93.80;;;;;;5046702;28;20295;-67
2022/05/18 05:04:02;;;;;;;9.30;6.17;;;19.00;93.80;;;;;;5041446;28;20595;-66
2022/05/18 05:06:28;;;;;;;5.63;4.60;;;18.90;93.70;;;;;;5060123;28;20243;-67
2022/05/18 05:08:53;;;;;;;6.60;5.30;;;18.90;94.00;;;;;;5042665;28;20450;-67
2022/05/18 05:11:19;;;;;;;5.80;5.27;;;18.90;94.10;;;;;;5034187;28;20269;-66
2022/05/18 05:13:45;;;;;;;5.83;5.33;;;18.90;94.10;;;;;;5051545;28;20236;-65
2022/05/18 05:16:11;;;;;;;6.70;5.70;;;18.80;94.80;;;;;;5045167;28;20715;-68
2022/05/18 05:18:38;;;;;;;7.17;6.10;;;18.80;94.60;;;;;;5041526;28;20222;-68
2022/05/18 05:21:05;;;;;;;6.57;5.20;;;18.80;94.40;;;;;;5047105;28;20577;-66
2022/05/18 05:23:32;;;;;;;6.30;5.47;;;18.90;94.30;;;;;;5047893;28;20469;-72
2022/05/18 05:25:59;;;;;;;7.80;5.00;;;18.90;94.40;;;;;;5043073;28;20509;-67
2022/05/18 05:28:25;;;;;;;6.97;6.30;;;19.00;94.30;;;;;;5045612;28;20834;-68
2022/05/18 05:30:52;;;;;;;10.93;5.47;;;19.00;94.40;;;;;;5047902;28;20465;-68
2022/05/18 05:33:18;;;;;;;9.30;5.80;;;19.00;94.50;;;;;;5049060;28;20467;-67
2022/05/18 05:35:44;;;;;;;8.90;5.87;;;19.10;94.50;;;;;;5049440;28;20508;-68
2022/05/18 05:38:11;;;;;;;7.60;5.60;;;19.10;94.40;;;;;;5049406;28;20216;-67
2022/05/18 05:40:38;;;;;;;7.87;5.83;;;19.10;94.30;;;;;;5037245;28;20224;-68
2022/05/18 05:43:08;;;;;;;6.67;6.00;;;19.10;94.30;;;;;;5040395;28;20467;-68
2022/05/18 05:45:34;;;;;;;8.87;6.20;;;19.10;94.50;;;;;;5038253;28;20466;-69
2022/05/18 05:48:01;;;;;;;7.97;5.37;;;19.20;94.30;;;;;;5046071;28;20461;-68
2022/05/18 05:50:27;;;;;;;9.57;5.00;;;19.20;94.30;;;;;;5042903;28;20507;-68
2022/05/18 05:52:53;;;;;;;6.40;5.47;;;19.20;94.50;;;;;;5039447;28;20490;-68
2022/05/18 05:55:18;;;;;;;4.83;4.17;;;19.30;94.60;;;;;;5038705;28;20219;-68
2022/05/18 05:57:44;;;;;;;5.47;4.70;;;19.30;95.00;;;;;;5037557;28;20456;-67
2022/05/18 06:00:11;;;;;;;6.00;5.40;;;19.40;95.10;;;;;;5038666;28;20228;-67
2022/05/18 06:02:39;;;;;;;6.27;4.83;;;19.40;95.30;;;;;;5044674;28;20227;-68
2022/05/18 06:05:05;;;;;;;5.30;4.40;;;19.50;95.20;;;;;;5036130;28;20993;-69
2022/05/18 06:07:32;;;;;;;5.87;4.93;;;19.50;95.30;;;;;;5035023;28;20224;-69
2022/05/18 06:09:58;;;;;;;6.43;4.97;;;19.60;95.70;;;;;;5031107;28;20488;-68
2022/05/18 06:12:25;;;;;;;8.43;5.80;;;19.70;96.10;;;;;;5028622;28;20468;-69
2022/05/18 06:14:51;;;;;;;5.43;4.93;;;19.70;95.60;;;;;;5042237;28;20450;-68
2022/05/18 06:17:17;;;;;;;8.10;5.77;;;19.70;96.00;;;;;;5041774;28;20524;-67
2022/05/18 06:19:42;;;;;;;6.03;5.43;;;19.80;95.80;;;;;;5036483;28;20319;-67
2022/05/18 06:22:08;;;;;;;6.97;5.40;;;19.90;96.10;;;;;;5038627;28;20216;-68
2022/05/18 06:24:35;;;;;;;10.23;5.30;;;19.90;96.00;;;;;;5041947;28;20212;-70
2022/05/18 06:27:01;;;;;;;5.97;5.37;;;20.00;96.80;;;;;;5040771;28;20676;-68
2022/05/18 06:29:27;;;;;;;5.23;4.80;;;20.10;96.20;;;;;;5042166;28;20488;-66
2022/05/18 06:31:53;;;;;;;5.50;5.00;;;20.20;96.40;;;;;;5045888;28;20319;-68
2022/05/18 06:34:21;;;;;;;10.43;5.10;;;20.30;96.50;;;;;;5041192;28;20533;-68
2022/05/18 06:36:49;;;;;;;10.50;5.53;;;20.30;96.90;;;;;;5043046;28;20216;-67
2022/05/18 06:39:18;;;;;;;5.30;4.90;;;20.50;96.90;;;;;;5045915;28;20458;-69
2022/05/18 06:41:45;;;;;;;6.57;6.03;;;20.50;97.10;;;;;;5029045;28;20487;-68
2022/05/18 06:44:11;;;;;;;6.97;5.90;;;20.70;97.60;;;;;;5034403;28;20834;-71
2022/05/18 06:46:38;;;;;;;5.67;5.17;;;20.80;97.70;;;;;;5055084;28;20447;-70
2022/05/18 06:49:06;;;;;;;6.03;5.00;;;20.90;97.50;;;;;;5036987;28;20465;-68
2022/05/18 06:51:36;;;;;;;7.40;5.53;;;21.00;97.40;;;;;;5054482;28;20458;-68
2022/05/18 06:54:03;;;;;;;7.13;5.57;;;21.00;97.20;;;;;;5036708;28;20978;-68
2022/05/18 06:56:33;;;;;;;5.17;4.67;;;21.10;97.30;;;;;;5039274;28;20507;-70
2022/05/18 06:58:59;;;;;;;5.13;4.63;;;21.20;97.40;;;;;;5038021;28;20477;-69
2022/05/18 07:01:27;;;;;;;6.03;5.43;;;21.20;97.30;;;;;;5040612;28;20458;-68
2022/05/18 07:03:53;;;;;;;5.97;5.43;;;21.20;97.50;;;;;;5037633;28;20220;-68
2022/05/18 07:06:22;;;;;;;5.20;4.60;;;21.30;97.50;;;;;;5041913;28;20523;-67
2022/05/18 07:08:54;;;;;;;8.37;5.57;;;21.40;97.40;;;;;;5046154;28;20558;-67
2022/05/18 07:11:20;;;;;;;5.87;4.70;;;21.40;97.50;;;;;;5022422;28;20950;-68
2022/05/18 07:13:46;;;;;;;5.23;4.83;;;21.50;97.60;;;;;;5043125;28;20538;-71
2022/05/18 07:16:12;;;;;;;9.70;5.10;;;21.60;97.50;;;;;;5038538;28;20223;-69
2022/05/18 07:18:38;;;;;;;6.17;5.50;;;21.70;97.90;;;;;;5039642;28;20527;-71
2022/05/18 07:21:05;;;;;;;5.60;5.20;;;21.70;97.80;;;;;;5039263;28;20306;-69
2022/05/18 07:23:32;;;;;;;5.70;5.20;;;21.80;97.60;;;;;;5040444;28;20449;-67
2022/05/18 07:25:58;;;;;;;6.87;5.37;;;21.90;97.60;;;;;;5036513;28;20467;-67
2022/05/18 07:28:25;;;;;;;9.73;6.10;;;22.00;98.00;;;;;;5035038;28;20457;-71
2022/05/18 07:30:52;;;;;;;9.63;6.00;;;22.10;98.10;;;;;;5035425;28;20478;-69
2022/05/18 07:33:20;;;;;;;5.37;4.83;;;22.20;98.70;;;;;;5038803;28;20457;-67
2022/05/18 07:35:46;;;;;;;7.63;4.80;;;22.30;98.20;;;;;;5043065;28;20608;-69
2022/05/18 07:38:13;;;;;;;5.40;4.97;;;22.50;98.40;;;;;;5042012;28;20446;-68
2022/05/18 07:40:39;;;;;;;5.90;4.87;;;22.60;98.40;;;;;;5039779;28;20472;-70
2022/05/18 07:43:05;;;;;;;5.57;5.07;;;22.60;98.10;;;;;;5043543;28;20457;-71
2022/05/18 07:45:30;;;;;;;5.70;4.53;;;22.70;98.30;;;;;;5039736;28;20458;-68
2022/05/18 07:47:56;;;;;;;5.70;5.20;;;22.80;98.30;;;;;;5035740;28;20220;-68
2022/05/18 07:50:24;;;;;;;8.00;5.10;;;22.90;98.10;;;;;;5032213;28;20215;-71
2022/05/18 07:52:52;;;;;;;5.10;4.60;;;22.90;97.90;;;;;;5036509;28;20269;-69
2022/05/18 07:55:18;;;;;;;5.70;5.13;;;23.00;98.30;;;;;;5032476;28;20473;-68
2022/05/18 07:57:44;;;;;;;5.10;4.70;;;23.10;97.70;;;;;;5036650;28;20548;-66
2022/05/18 08:00:12;;;;;;;5.00;4.60;;;23.10;97.50;;;;;;5037482;28;20549;-69
2022/05/18 08:02:38;;;;;;;6.93;4.57;;;23.20;97.60;;;;;;5041032;28;20219;-67
2022/05/18 08:05:05;;;;;;;5.47;3.87;;;23.30;97.20;;;;;;5043054;28;20625;-68
2022/05/18 08:07:31;;;;;;;4.37;4.07;;;23.40;96.50;;;;;;5034573;28;20247;-70
2022/05/18 08:15:25;;;;;;;4.43;4.03;;;23.70;96.10;;;;;;5036680;28;20447;-71
2022/05/18 08:17:51;;;;;;;6.20;5.53;;;23.80;96.00;;;;;;5038412;28;20453;-71
2022/05/18 08:20:20;;;;;;;4.80;4.23;;;23.90;96.00;;;;;;5048982;28;20317;-71
2022/05/18 08:22:46;;;;;;;4.70;4.27;;;24.10;95.80;;;;;;5032717;28;20244;-71
2022/05/18 08:25:13;;;;;;;4.63;4.23;;;24.30;95.70;;;;;;5040654;28;20840;-71
2022/05/18 08:27:41;;;;;;;5.13;4.73;;;24.40;95.70;;;;;;5056302;28;20449;-70
2022/05/18 08:30:09;;;;;;;4.90;4.50;;;24.50;95.70;;;;;;5042470;28;20451;-70
2022/05/18 08:32:34;;;;;;;4.47;4.00;;;24.50;95.50;;;;;;5039406;28;20704;-73
2022/05/18 08:35:00;;;;;;;4.30;4.00;;;24.60;95.40;;;;;;5036295;28;20494;-71
2022/05/18 08:37:26;;;;;;;8.33;4.47;;;24.80;95.10;;;;;;5042049;28;20211;-71
2022/05/18 08:39:51;;;;;;;4.40;4.03;;;24.80;94.80;;;;;;5045887;28;20219;-71
2022/05/18 08:42:19;;;;;;;5.17;4.70;;;24.90;94.50;;;;;;5046848;28;20681;-72
2022/05/18 08:44:46;;;;;;;4.97;4.47;;;25.00;94.40;;;;;;5042734;28;20711;-73
2022/05/18 08:47:39;;;;;;;4.33;4.03;;;25.00;94.50;;;;;;5042442;28;20451;-74
2022/05/18 08:50:13;;;;;;;5.40;4.37;;;25.30;94.30;;;;;;5035704;28;20477;-72
2022/05/18 08:52:54;;;;;;;4.80;4.00;;;25.50;93.50;;;;;;5042514;28;20466;-69
2022/05/18 08:56:01;;;;;;;4.40;4.00;;;25.50;93.80;;;;;;5034815;28;20513;-71
2022/05/18 08:58:30;;;;;;;4.80;4.40;;;25.50;93.80;;;;;;5040481;28;20456;-72
2022/05/18 09:01:00;;;;;;;4.87;4.40;;;25.60;93.70;;;;;;5035475;28;20470;-72
2022/05/18 09:04:00;;;;;;;4.87;4.43;;;25.80;93.50;;;;;;5041013;28;20465;-71
2022/05/18 09:06:44;;;;;;;5.03;4.53;;;25.80;93.70;;;;;;5040281;28;20467;-72
2022/05/18 09:12:03;;;;;;;3.70;3.40;;;25.90;92.70;;;;;;5039583;28;20548;-71
2022/05/18 09:14:37;;;;;;;4.10;3.70;;;26.00;92.70;;;;;;5044963;28;20466;-71
2022/05/18 09:17:18;;;;;;;3.80;3.50;;;26.10;92.60;;;;;;5042512;28;20504;-70
2022/05/18 09:20:03;;;;;;;5.60;4.30;;;26.30;92.20;;;;;;5035782;28;20516;-71
2022/05/18 09:22:45;;;;;;;4.60;4.30;;;26.50;91.50;;;;;;5039283;28;20457;-74
2022/05/18 09:25:47;;;;;;;4.33;3.93;;;26.60;90.70;;;;;;5033831;28;20603;-73
2022/05/18 09:28:43;;;;;;;4.80;4.10;;;26.60;90.90;;;;;;5013611;28;20464;-73
2022/05/18 09:31:15;;;;;;;3.70;3.40;;;26.80;90.50;;;;;;5046192;28;20457;-70
2022/05/18 09:33:47;;;;;;;4.20;3.80;;;26.90;90.60;;;;;;5039814;28;20694;-71
2022/05/18 09:36:33;;;;;;;4.73;4.33;;;27.00;90.30;;;;;;5042077;28;20525;-72
2022/05/18 09:39:08;;;;;;;5.13;4.27;;;27.00;90.20;;;;;;5040719;28;20478;-71
2022/05/18 09:41:50;;;;;;;4.17;3.87;;;27.10;89.50;;;;;;5035494;28;20227;-70
2022/05/18 09:44:38;;;;;;;4.78;4.38;;;27.10;90.00;;;;;;5040558;28;20232;-72
2022/05/18 09:47:05;;;;;;;3.47;3.20;;;27.20;90.10;;;;;;5041272;28;20231;-72
2022/05/18 09:49:40;;;;;;;5.30;4.10;;;27.30;89.80;;;;;;5032092;28;20284;-70
2022/05/18 09:52:09;;;;;;;6.60;3.50;;;27.40;89.40;;;;;;5036037;28;20227;-71
2022/05/18 09:54:37;;;;;;;4.30;3.97;;;27.60;88.60;;;;;;5028551;28;20231;-71
2022/05/18 09:57:11;;;;;;;4.55;4.25;;;27.80;87.90;;;;;;5039613;28;20219;-71
2022/05/18 09:59:45;;;;;;;4.35;3.40;;;27.90;87.10;;;;;;5038524;28;20227;-71
2022/05/18 10:07:53;;;;;;;6.80;3.78;;;28.10;87.90;;;;;;5038360;28;20223;-70
2022/05/18 10:10:19;;;;;;;5.65;4.20;;;28.30;87.70;;;;;;5043765;28;20206;-69
2022/05/18 10:13:07;;;;;;;4.25;3.85;;;28.30;87.70;;;;;;5047626;28;20687;-72
2022/05/18 10:15:45;;;;;;;4.50;4.20;;;28.40;87.90;;;;;;5040453;28;20289;-72
2022/05/18 10:18:11;;;;;;;4.90;4.20;;;28.40;87.70;;;;;;5028925;28;20219;-73
2022/05/18 10:20:38;;;;;;;4.85;4.28;;;28.60;87.40;;;;;;5044574;28;20257;-73
2022/05/18 10:23:25;;;;;;;5.38;4.30;;;28.80;86.90;;;;;;5052316;28;20659;-71
2022/05/18 10:25:51;;;;;;;4.22;3.70;;;28.80;86.50;;;;;;5038528;28;20215;-72
2022/05/18 10:28:21;;;;;;;6.03;5.63;;;29.00;86.20;;;;;;5040036;28;20220;-72
2022/05/18 10:31:01;;;;;;;4.53;4.13;;;29.10;85.60;;;;;;5038634;28;20225;-71
2022/05/18 10:33:31;;;;;;;4.38;4.00;;;29.10;86.80;;;;;;5041691;28;20237;-70
2022/05/18 10:36:23;;;;;;;4.38;3.97;;;29.00;85.30;;;;;;5039808;28;20203;-71
2022/05/18 10:38:54;;;;;;;4.82;4.43;;;29.00;84.90;;;;;;5036624;28;20224;-70
2022/05/18 10:41:26;;;;;;;4.72;4.28;;;29.20;84.00;;;;;;5039372;28;20251;-71
2022/05/18 10:43:54;;;;;;;4.53;4.13;;;29.30;83.80;;;;;;5036777;28;20224;-72
2022/05/18 10:46:30;;;;;;;5.82;4.30;;;29.30;84.10;;;;;;5044911;28;20227;-69
2022/05/18 10:49:12;;;;;;;4.32;4.03;;;29.50;82.50;;;;;;5047452;28;20231;-68
2022/05/18 10:51:38;;;;;;;4.78;4.32;;;29.70;82.60;;;;;;5039663;28;20232;-70
2022/05/18 10:54:23;;;;;;;5.40;4.45;;;29.80;81.40;;;;;;5033390;28;20232;-71
2022/05/18 10:56:50;;;;;;;5.50;4.32;;;29.90;81.40;;;;;;5032670;28;20295;-71
2022/05/18 10:59:44;;;;;;;4.55;4.15;;;29.80;81.20;;;;;;5036926;28;20219;-69
2022/05/18 11:02:40;;;;;;;5.90;3.80;;;29.90;80.60;;;;;;5038914;28;20605;-70
2022/05/18 11:05:12;;;;;;;3.60;3.22;;;30.10;79.40;;;;;;5050153;28;20299;-71
2022/05/18 11:07:37;;;;;;;3.30;3.00;;;30.10;78.60;;;;;;5046404;28;20208;-72
2022/05/18 11:10:04;;;;;;;6.18;3.47;;;30.00;77.20;;;;;;5035992;28;20310;-69
2022/05/18 11:12:54;;;;;;;3.63;3.33;;;30.00;75.90;;;;;;5039156;28;20695;-69
2022/05/18 11:15:31;;;;;;;3.55;3.28;;;30.20;75.40;;;;;;5036293;28;20225;-71
2022/05/18 11:18:14;;;;;;;3.83;3.50;;;30.20;74.40;;;;;;5030522;28;20237;-69
2022/05/18 11:20:40;;;;;;;3.75;3.45;;;30.30;72.30;;;;;;5036385;28;20238;-70
2022/05/18 11:23:34;;;;;;;4.20;3.03;;;30.40;73.30;;;;;;5042573;28;20317;-69
2022/05/18 11:26:21;;;;;;;3.67;3.38;;;30.30;72.90;;;;;;5052361;28;20225;-69
2022/05/18 11:29:15;;;;;;;3.13;2.92;;;30.40;73.00;;;;;;5040532;28;20223;-68
2022/05/18 11:31:41;;;;;;;3.65;3.35;;;30.60;71.90;;;;;;5037346;28;20268;-69
2022/05/18 11:34:13;;;;;;;3.95;3.40;;;30.70;73.10;;;;;;5030812;28;20773;-69
2022/05/18 11:37:12;;;;;;;3.20;3.00;;;30.70;73.30;;;;;;5025410;28;20297;-69
2022/05/18 11:39:56;;;;;;;3.00;2.80;;;30.90;71.00;;;;;;5036068;28;20845;-69
2022/05/18 11:42:38;;;;;;;2.90;2.70;;;31.10;69.20;;;;;;5039319;28;20227;-69
2022/05/18 11:45:22;;;;;;;3.67;3.38;;;31.10;68.00;;;;;;5037523;28;20653;-70
2022/05/18 11:48:10;;;;;;;3.55;2.90;;;31.10;69.20;;;;;;5034068;28;20213;-72
2022/05/18 11:50:54;;;;;;;2.80;2.60;;;31.00;67.40;;;;;;5040798;28;20291;-69
2022/05/18 11:53:36;;;;;;;4.35;3.05;;;31.10;68.40;;;;;;5040416;28;20231;-70
2022/05/18 11:56:10;;;;;;;3.17;2.97;;;31.10;67.40;;;;;;5034624;28;20231;-69
2022/05/18 11:59:15;;;;;;;4.80;3.08;;;31.20;67.30;;;;;;5032563;28;20314;-70
2022/05/18 12:02:01;;;;;;;3.33;3.03;;;31.20;68.30;;;;;;5039203;28;20661;-69
2022/05/18 12:04:46;;;;;;;3.30;3.00;;;31.10;68.00;;;;;;5037050;28;20688;-71
2022/05/18 12:07:33;;;;;;;2.90;2.80;;;31.10;68.00;;;;;;5037742;28;20237;-68
2022/05/18 12:10:34;;;;;;;2.80;2.60;;;31.10;67.90;;;;;;5034405;28;20692;-69
2022/05/18 12:13:00;;;;;;;3.40;3.10;;;31.20;65.30;;;;;;5042201;28;20232;-70
2022/05/18 12:15:50;;;;;;;3.40;3.13;;;31.20;66.20;;;;;;5035105;28;20587;-70
2022/05/18 12:18:27;;;;;;;3.00;2.80;;;31.30;66.90;;;;;;5037750;28;20230;-69
2022/05/18 12:21:05;;;;;;;4.40;2.58;;;31.40;66.90;;;;;;5041714;28;20397;-69
2022/05/18 12:23:35;;;;;;;2.92;2.60;;;31.40;66.70;;;;;;5036044;28;20227;-70
2022/05/18 12:26:01;;;;;;;3.20;2.85;;;31.60;67.10;;;;;;5037972;28;20231;-69
2022/05/18 12:28:28;;;;;;;2.75;2.63;;;31.70;64.10;;;;;;5041696;28;20308;-70
2022/05/18 12:30:55;;;;;;;2.50;2.30;;;31.90;62.90;;;;;;5046988;28;20252;-70
2022/05/18 12:33:22;;;;;;;2.20;2.10;;;31.90;62.70;;;;;;5041275;28;20837;-72
2022/05/18 12:36:02;;;;;;;2.38;2.28;;;32.10;62.90;;;;;;5037932;28;20227;-70
2022/05/18 12:39:06;;;;;;;2.90;2.55;;;32.10;61.50;;;;;;5040669;28;20644;-68
2022/05/18 12:41:32;;;;;;;3.22;2.45;;;32.10;61.20;;;;;;5044631;28;20271;-69
2022/05/18 12:44:23;;;;;;;2.60;2.45;;;32.30;62.80;;;;;;5028299;28;20300;-69
2022/05/18 12:47:04;;;;;;;2.83;2.63;;;32.40;63.60;;;;;;5043625;28;20228;-69
2022/05/18 12:49:40;;;;;;;2.80;2.60;;;32.20;61.70;;;;;;5060451;28;20223;-69
2022/05/18 12:52:18;;;;;;;3.10;2.90;;;32.10;61.60;;;;;;5053977;28;20234;-69
2022/05/18 12:54:47;;;;;;;3.10;2.90;;;32.20;62.00;;;;;;5045118;28;20275;-69
2022/05/18 12:57:42;;;;;;;4.60;2.45;;;32.30;60.50;;;;;;5055387;28;20245;-69
2022/05/18 13:00:33;;;;;;;3.03;2.83;;;32.40;60.10;;;;;;5024508;28;20722;-70
2022/05/18 13:03:23;;;;;;;2.50;2.30;;;32.30;59.40;;;;;;5052787;28;20472;-69
2022/05/18 13:05:55;;;;;;;2.70;2.50;;;32.30;59.90;;;;;;5037205;28;20237;-71
2022/05/18 13:08:23;;;;;;;2.97;2.78;;;32.40;59.50;;;;;;5038026;28;20230;-69
2022/05/18 13:11:14;;;;;;;2.17;2.08;;;32.20;58.70;;;;;;5038429;28;20741;-71
2022/05/18 13:14:17;;;;;;;2.22;2.03;;;32.20;59.50;;;;;;5019506;28;20325;-69
2022/05/18 13:16:49;;;;;;;4.60;2.30;;;32.40;60.20;;;;;;5046590;28;20228;-69
2022/05/18 13:19:14;;;;;;;2.38;2.22;;;32.60;59.00;;;;;;5044078;28;20308;-70
2022/05/18 13:21:45;;;;;;;3.05;2.60;;;32.90;58.40;;;;;;5044212;28;20334;-70
2022/05/18 13:24:15;;;;;;;2.78;2.58;;;32.80;58.20;;;;;;5041010;28;20227;-69